sensor_id;sensor_type;location;lat;lon;timestamp;pressure;altitude;pressure_sealevel;temperature;humidity
59873;BME280;50750;51.636;4.948;2023-03-03T00:01:37;102604.21;;;10.18;57.11
59873;BME280;50750;51.636;4.948;2023-03-03T00:04:03;102607.19;;;10.18;57.09
59873;BME280;50750;51.636;4.948;2023-03-03T00:06:30;102608.23;;;10.17;57.06
59873;BME280;50750;51.636;4.948;2023-03-03T00:08:56;102612.77;;;10.18;57.05
59873;BME280;50750;51.636;4.948;2023-03-03T00:11:23;102615.75;;;10.17;57.02
59873;BME280;50750;51.636;4.948;2023-03-03T00:13:52;102617.67;;;10.17;57.06
59873;BME280;50750;51.636;4.948;2023-03-03T00:18:49;102627.67;;;10.16;57.08
59873;BME280;50750;51.636;4.948;2023-03-03T00:24:24;102625.05;;;10.16;57.04
59873;BME280;50750;51.636;4.948;2023-03-03T00:26:56;102623.30;;;10.16;57.06
59873;BME280;50750;51.636;4.948;2023-03-03T00:29:30;102620.66;;;10.15;57.08
59873;BME280;50750;51.636;4.948;2023-03-03T00:32:58;102623.48;;;10.15;57.11
59873;BME280;50750;51.636;4.948;2023-03-03T00:35:22;102618.58;;;10.15;57.04
59873;BME280;50750;51.636;4.948;2023-03-03T00:37:55;102615.41;;;10.15;57.05
59873;BME280;50750;51.636;4.948;2023-03-03T00:40:34;102616.30;;;10.15;57.00
59873;BME280;50750;51.636;4.948;2023-03-03T00:43:01;102615.23;;;10.15;57.10
59873;BME280;50750;51.636;4.948;2023-03-03T00:45:43;102622.77;;;10.14;57.08
59873;BME280;50750;51.636;4.948;2023-03-03T00:48:28;102621.02;;;10.14;57.12
59873;BME280;50750;51.636;4.948;2023-03-03T00:50:57;102619.79;;;10.14;57.11
59873;BME280;50750;51.636;4.948;2023-03-03T00:53:26;102621.02;;;10.14;57.08
59873;BME280;50750;51.636;4.948;2023-03-03T00:55:53;102617.35;;;10.14;57.07
59873;BME280;50750;51.636;4.948;2023-03-03T00:58:21;102619.09;;;10.14;57.06
59873;BME280;50750;51.636;4.948;2023-03-03T01:00:50;102624.70;;;10.13;57.09
59873;BME280;50750;51.636;4.948;2023-03-03T01:03:20;102621.73;;;10.13;57.04
59873;BME280;50750;51.636;4.948;2023-03-03T01:05:48;102626.98;;;10.13;57.06
59873;BME280;50750;51.636;4.948;2023-03-03T01:08:15;102625.20;;;10.12;57.05
59873;BME280;50750;51.636;4.948;2023-03-03T01:10:48;102623.98;;;10.12;57.11
59873;BME280;50750;51.636;4.948;2023-03-03T01:13:20;102626.10;;;10.12;57.06
59873;BME280;50750;51.636;4.948;2023-03-03T01:15:49;102625.39;;;10.12;57.03
59873;BME280;50750;51.636;4.948;2023-03-03T01:18:15;102626.27;;;10.12;57.12
59873;BME280;50750;51.636;4.948;2023-03-03T01:20:42;102624.34;;;10.11;57.03
59873;BME280;50750;51.636;4.948;2023-03-03T01:23:09;102621.38;;;10.12;57.03
59873;BME280;50750;51.636;4.948;2023-03-03T01:25:36;102624.88;;;10.11;57.13
59873;BME280;50750;51.636;4.948;2023-03-03T01:28:02;102625.39;;;10.11;56.97
59873;BME280;50750;51.636;4.948;2023-03-03T01:30:30;102628.02;;;10.11;57.09
59873;BME280;50750;51.636;4.948;2023-03-03T01:32:56;102627.31;;;10.10;57.06
59873;BME280;50750;51.636;4.948;2023-03-03T01:35:23;102630.65;;;10.10;57.04
59873;BME280;50750;51.636;4.948;2023-03-03T01:37:50;102628.54;;;10.10;56.99
59873;BME280;50750;51.636;4.948;2023-03-03T01:40:23;102627.31;;;10.10;57.00
59873;BME280;50750;51.636;4.948;2023-03-03T01:42:50;102627.84;;;10.10;57.03
59873;BME280;50750;51.636;4.948;2023-03-03T01:50:47;102634.14;;;10.09;56.97
59873;BME280;50750;51.636;4.948;2023-03-03T01:53:38;102637.65;;;10.09;56.97
59873;BME280;50750;51.636;4.948;2023-03-03T01:56:08;102639.23;;;10.08;57.04
59873;BME280;50750;51.636;4.948;2023-03-03T01:58:45;102637.11;;;10.07;57.02
59873;BME280;50750;51.636;4.948;2023-03-03T02:01:19;102634.66;;;10.08;56.95
59873;BME280;50750;51.636;4.948;2023-03-03T02:03:47;102634.85;;;10.07;56.94
59873;BME280;50750;51.636;4.948;2023-03-03T02:06:16;102633.27;;;10.07;57.06
59873;BME280;50750;51.636;4.948;2023-03-03T02:11:11;102637.13;;;10.05;57.10
59873;BME280;50750;51.636;4.948;2023-03-03T02:13:39;102638.17;;;10.06;57.07
59873;BME280;50750;51.636;4.948;2023-03-03T02:16:06;102637.65;;;10.05;57.08
59873;BME280;50750;51.636;4.948;2023-03-03T02:18:33;102640.27;;;10.04;57.07
59873;BME280;50750;51.636;4.948;2023-03-03T02:21:15;102641.15;;;10.04;57.08
59873;BME280;50750;51.636;4.948;2023-03-03T02:23:52;102637.64;;;10.03;57.07
59873;BME280;50750;51.636;4.948;2023-03-03T02:26:24;102636.25;;;10.03;57.08
59873;BME280;50750;51.636;4.948;2023-03-03T02:28:52;102632.58;;;10.03;57.09
59873;BME280;50750;51.636;4.948;2023-03-03T02:31:21;102638.70;;;10.02;57.06
59873;BME280;50750;51.636;4.948;2023-03-03T02:33:50;102636.06;;;10.02;57.01
59873;BME280;50750;51.636;4.948;2023-03-03T02:36:32;102637.10;;;10.02;57.14
59873;BME280;50750;51.636;4.948;2023-03-03T02:39:10;102634.48;;;10.01;57.15
59873;BME280;50750;51.636;4.948;2023-03-03T02:44:17;102636.07;;;10.01;57.15
59873;BME280;50750;51.636;4.948;2023-03-03T02:46:46;102639.73;;;10.01;57.14
59873;BME280;50750;51.636;4.948;2023-03-03T02:49:15;102636.77;;;10.01;57.17
59873;BME280;50750;51.636;4.948;2023-03-03T02:51:42;102637.64;;;10.01;57.15
59873;BME280;50750;51.636;4.948;2023-03-03T02:54:11;102633.44;;;10.00;57.06
59873;BME280;50750;51.636;4.948;2023-03-03T02:56:38;102635.02;;;10.01;57.14
59873;BME280;50750;51.636;4.948;2023-03-03T02:59:05;102631.70;;;10.00;57.18
59873;BME280;50750;51.636;4.948;2023-03-03T03:01:32;102633.09;;;10.00;57.19
59873;BME280;50750;51.636;4.948;2023-03-03T03:04:25;102640.27;;;10.00;57.19
59873;BME280;50750;51.636;4.948;2023-03-03T03:06:53;102635.89;;;9.99;57.22
59873;BME280;50750;51.636;4.948;2023-03-03T03:09:21;102635.19;;;9.99;57.19
59873;BME280;50750;51.636;4.948;2023-03-03T03:11:48;102636.95;;;10.00;57.22
59873;BME280;50750;51.636;4.948;2023-03-03T03:14:15;102635.17;;;10.00;57.22
59873;BME280;50750;51.636;4.948;2023-03-03T03:16:41;102635.20;;;10.00;57.13
59873;BME280;50750;51.636;4.948;2023-03-03T03:19:08;102639.21;;;9.99;57.17
59873;BME280;50750;51.636;4.948;2023-03-03T03:21:34;102639.73;;;9.99;57.20
59873;BME280;50750;51.636;4.948;2023-03-03T03:24:01;102640.09;;;9.98;57.24
59873;BME280;50750;51.636;4.948;2023-03-03T03:26:27;102645.16;;;9.99;57.24
59873;BME280;50750;51.636;4.948;2023-03-03T03:28:54;102643.40;;;9.98;57.08
59873;BME280;50750;51.636;4.948;2023-03-03T03:31:21;102649.89;;;9.99;57.19
59873;BME280;50750;51.636;4.948;2023-03-03T03:33:47;102647.62;;;9.98;57.17
59873;BME280;50750;51.636;4.948;2023-03-03T03:36:15;102649.72;;;9.97;57.20
59873;BME280;50750;51.636;4.948;2023-03-03T03:38:42;102649.36;;;9.97;57.26
59873;BME280;50750;51.636;4.948;2023-03-03T03:41:10;102650.07;;;9.97;57.16
59873;BME280;50750;51.636;4.948;2023-03-03T03:43:37;102649.88;;;9.96;57.27
59873;BME280;50750;51.636;4.948;2023-03-03T03:46:04;102651.11;;;9.96;57.31
59873;BME280;50750;51.636;4.948;2023-03-03T03:48:30;102653.90;;;9.96;57.27
59873;BME280;50750;51.636;4.948;2023-03-03T03:50:57;102651.98;;;9.96;57.29
59873;BME280;50750;51.636;4.948;2023-03-03T03:53:23;102648.84;;;9.95;57.25
59873;BME280;50750;51.636;4.948;2023-03-03T03:55:50;102654.79;;;9.96;57.24
59873;BME280;50750;51.636;4.948;2023-03-03T03:58:17;102652.52;;;9.95;57.18
59873;BME280;50750;51.636;4.948;2023-03-03T04:00:45;102648.66;;;9.95;57.30
59873;BME280;50750;51.636;4.948;2023-03-03T04:03:12;102653.23;;;9.94;57.27
59873;BME280;50750;51.636;4.948;2023-03-03T04:05:42;102656.55;;;9.94;57.27
59873;BME280;50750;51.636;4.948;2023-03-03T04:08:09;102654.09;;;9.94;57.28
59873;BME280;50750;51.636;4.948;2023-03-03T04:10:37;102653.75;;;9.94;57.33
59873;BME280;50750;51.636;4.948;2023-03-03T04:13:03;102660.57;;;9.94;57.32
59873;BME280;50750;51.636;4.948;2023-03-03T04:15:30;102661.60;;;9.93;57.24
59873;BME280;50750;51.636;4.948;2023-03-03T04:17:56;102664.75;;;9.93;57.30
59873;BME280;50750;51.636;4.948;2023-03-03T04:20:23;102662.48;;;9.93;57.31
59873;BME280;50750;51.636;4.948;2023-03-03T04:22:49;102662.13;;;9.93;57.26
59873;BME280;50750;51.636;4.948;2023-03-03T04:25:16;102667.39;;;9.93;57.24
59873;BME280;50750;51.636;4.948;2023-03-03T04:27:43;102668.42;;;9.93;57.32
59873;BME280;50750;51.636;4.948;2023-03-03T04:30:12;102669.12;;;9.93;57.33
59873;BME280;50750;51.636;4.948;2023-03-03T04:32:39;102669.31;;;9.93;57.25
59873;BME280;50750;51.636;4.948;2023-03-03T04:35:07;102672.29;;;9.92;57.41
59873;BME280;50750;51.636;4.948;2023-03-03T04:37:34;102672.64;;;9.92;57.34
59873;BME280;50750;51.636;4.948;2023-03-03T04:40:02;102673.34;;;9.92;57.33
59873;BME280;50750;51.636;4.948;2023-03-03T04:42:28;102677.19;;;9.92;57.28
59873;BME280;50750;51.636;4.948;2023-03-03T04:44:55;102679.29;;;9.92;57.30
59873;BME280;50750;51.636;4.948;2023-03-03T04:47:21;102677.19;;;9.92;57.32
59873;BME280;50750;51.636;4.948;2023-03-03T04:49:48;102675.45;;;9.91;57.22
59873;BME280;50750;51.636;4.948;2023-03-03T04:52:14;102674.21;;;9.91;57.28
59873;BME280;50750;51.636;4.948;2023-03-03T04:54:41;102673.16;;;9.91;57.31
59873;BME280;50750;51.636;4.948;2023-03-03T04:57:07;102674.20;;;9.91;57.25
59873;BME280;50750;51.636;4.948;2023-03-03T04:59:35;102674.02;;;9.90;57.23
59873;BME280;50750;51.636;4.948;2023-03-03T05:02:02;102679.63;;;9.90;57.28
59873;BME280;50750;51.636;4.948;2023-03-03T05:04:30;102680.14;;;9.90;57.19
59873;BME280;50750;51.636;4.948;2023-03-03T05:06:57;102679.98;;;9.90;57.34
59873;BME280;50750;51.636;4.948;2023-03-03T05:09:24;102678.92;;;9.90;57.26
59873;BME280;50750;51.636;4.948;2023-03-03T05:11:51;102677.17;;;9.90;57.36
59873;BME280;50750;51.636;4.948;2023-03-03T05:14:18;102677.71;;;9.89;57.31
59873;BME280;50750;51.636;4.948;2023-03-03T05:16:44;102681.20;;;9.90;57.39
59873;BME280;50750;51.636;4.948;2023-03-03T05:19:11;102686.29;;;9.90;57.35
59873;BME280;50750;51.636;4.948;2023-03-03T05:21:38;102684.70;;;9.89;57.40
59873;BME280;50750;51.636;4.948;2023-03-03T05:24:08;102691.89;;;9.89;57.34
59873;BME280;50750;51.636;4.948;2023-03-03T05:26:35;102693.11;;;9.89;57.36
59873;BME280;50750;51.636;4.948;2023-03-03T05:29:03;102694.32;;;9.88;57.40
59873;BME280;50750;51.636;4.948;2023-03-03T05:31:30;102690.30;;;9.88;57.32
59873;BME280;50750;51.636;4.948;2023-03-03T05:33:56;102692.05;;;9.87;57.38
59873;BME280;50750;51.636;4.948;2023-03-03T05:36:23;102692.22;;;9.87;57.40
59873;BME280;50750;51.636;4.948;2023-03-03T05:38:49;102693.45;;;9.87;57.43
59873;BME280;50750;51.636;4.948;2023-03-03T05:41:16;102695.02;;;9.87;57.44
59873;BME280;50750;51.636;4.948;2023-03-03T05:43:43;102695.90;;;9.87;57.41
59873;BME280;50750;51.636;4.948;2023-03-03T05:46:10;102694.48;;;9.86;57.27
59873;BME280;50750;51.636;4.948;2023-03-03T05:48:37;102700.79;;;9.87;57.42
59873;BME280;50750;51.636;4.948;2023-03-03T05:51:04;102701.84;;;9.86;57.42
59873;BME280;50750;51.636;4.948;2023-03-03T05:53:30;102704.29;;;9.86;57.42
59873;BME280;50750;51.636;4.948;2023-03-03T05:55:57;102708.48;;;9.86;57.37
59873;BME280;50750;51.636;4.948;2023-03-03T05:58:24;102709.02;;;9.86;57.45
59873;BME280;50750;51.636;4.948;2023-03-03T06:00:50;102708.67;;;9.86;57.45
59873;BME280;50750;51.636;4.948;2023-03-03T06:03:17;102710.94;;;9.86;57.36
59873;BME280;50750;51.636;4.948;2023-03-03T06:05:43;102712.33;;;9.86;57.38
59873;BME280;50750;51.636;4.948;2023-03-03T06:08:10;102712.88;;;9.86;57.44
59873;BME280;50750;51.636;4.948;2023-03-03T06:10:36;102715.30;;;9.86;57.27
59873;BME280;50750;51.636;4.948;2023-03-03T06:13:03;102717.23;;;9.86;57.43
59873;BME280;50750;51.636;4.948;2023-03-03T06:15:30;102719.34;;;9.86;57.39
59873;BME280;50750;51.636;4.948;2023-03-03T06:17:56;102721.08;;;9.86;57.53
59873;BME280;50750;51.636;4.948;2023-03-03T06:20:23;102723.02;;;9.86;57.45
59873;BME280;50750;51.636;4.948;2023-03-03T06:22:49;102725.80;;;9.86;57.39
59873;BME280;50750;51.636;4.948;2023-03-03T06:25:16;102725.80;;;9.86;57.39
59873;BME280;50750;51.636;4.948;2023-03-03T06:27:43;102734.20;;;9.85;57.37
59873;BME280;50750;51.636;4.948;2023-03-03T06:30:10;102734.90;;;9.86;57.46
59873;BME280;50750;51.636;4.948;2023-03-03T06:32:38;102735.95;;;9.86;57.46
59873;BME280;50750;51.636;4.948;2023-03-03T06:35:05;102735.25;;;9.86;57.52
59873;BME280;50750;51.636;4.948;2023-03-03T06:37:32;102733.67;;;9.85;57.40
59873;BME280;50750;51.636;4.948;2023-03-03T06:39:59;102739.29;;;9.85;57.52
59873;BME280;50750;51.636;4.948;2023-03-03T06:42:25;102744.70;;;9.85;57.48
59873;BME280;50750;51.636;4.948;2023-03-03T06:44:52;102744.02;;;9.84;57.47
59873;BME280;50750;51.636;4.948;2023-03-03T06:47:19;102748.56;;;9.84;57.44
59873;BME280;50750;51.636;4.948;2023-03-03T06:49:45;102748.21;;;9.84;57.47
59873;BME280;50750;51.636;4.948;2023-03-03T06:52:14;102753.12;;;9.84;57.47
59873;BME280;50750;51.636;4.948;2023-03-03T06:54:42;102760.82;;;9.83;57.47
59873;BME280;50750;51.636;4.948;2023-03-03T06:57:35;102760.98;;;9.83;57.38
59873;BME280;50750;51.636;4.948;2023-03-03T07:02:41;102767.44;;;9.82;57.44
59873;BME280;50750;51.636;4.948;2023-03-03T07:05:16;102771.29;;;9.82;57.42
59873;BME280;50750;51.636;4.948;2023-03-03T07:07:43;102770.41;;;9.82;57.37
59873;BME280;50750;51.636;4.948;2023-03-03T07:12:49;102776.02;;;9.81;57.42
59873;BME280;50750;51.636;4.948;2023-03-03T07:15:48;102771.48;;;9.81;57.45
59873;BME280;50750;51.636;4.948;2023-03-03T07:19:08;102774.63;;;9.81;57.39
59873;BME280;50750;51.636;4.948;2023-03-03T07:21:22;102773.92;;;9.80;57.36
59873;BME280;50750;51.636;4.948;2023-03-03T07:23:52;102773.58;;;9.81;57.47
59873;BME280;50750;51.636;4.948;2023-03-03T07:26:20;102776.02;;;9.80;57.42
59873;BME280;50750;51.636;4.948;2023-03-03T07:28:54;102783.89;;;9.81;57.46
59873;BME280;50750;51.636;4.948;2023-03-03T07:31:40;102781.27;;;9.81;57.29
59873;BME280;50750;51.636;4.948;2023-03-03T07:34:19;102781.08;;;9.80;57.45
59873;BME280;50750;51.636;4.948;2023-03-03T07:36:48;102783.52;;;9.80;57.47
59873;BME280;50750;51.636;4.948;2023-03-03T07:39:27;102784.41;;;9.80;57.37
59873;BME280;50750;51.636;4.948;2023-03-03T07:42:45;102790.17;;;9.80;57.45
59873;BME280;50750;51.636;4.948;2023-03-03T07:44:49;102790.36;;;9.79;57.43
59873;BME280;50750;51.636;4.948;2023-03-03T07:49:47;102794.02;;;9.79;57.52
59873;BME280;50750;51.636;4.948;2023-03-03T07:52:40;102800.32;;;9.79;57.44
59873;BME280;50750;51.636;4.948;2023-03-03T07:55:34;102806.28;;;9.79;57.44
59873;BME280;50750;51.636;4.948;2023-03-03T07:58:24;102808.73;;;9.79;57.45
59873;BME280;50750;51.636;4.948;2023-03-03T08:03:37;102808.91;;;9.78;57.52
59873;BME280;50750;51.636;4.948;2023-03-03T08:11:52;102818.88;;;9.78;57.57
59873;BME280;50750;51.636;4.948;2023-03-03T08:14:26;102817.81;;;9.78;57.56
59873;BME280;50750;51.636;4.948;2023-03-03T08:16:54;102819.39;;;9.77;57.53
59873;BME280;50750;51.636;4.948;2023-03-03T08:19:23;102819.91;;;9.77;57.56
59873;BME280;50750;51.636;4.948;2023-03-03T08:21:50;102826.55;;;9.77;57.68
59873;BME280;50750;51.636;4.948;2023-03-03T08:24:18;102826.38;;;9.77;57.60
59873;BME280;50750;51.636;4.948;2023-03-03T08:26:44;102832.16;;;9.77;57.59
59873;BME280;50750;51.636;4.948;2023-03-03T08:29:11;102828.13;;;9.77;57.58
59873;BME280;50750;51.636;4.948;2023-03-03T08:31:37;102829.70;;;9.77;57.50
59873;BME280;50750;51.636;4.948;2023-03-03T08:34:04;102830.41;;;9.77;57.57
59873;BME280;50750;51.636;4.948;2023-03-03T08:36:30;102832.68;;;9.77;57.64
59873;BME280;50750;51.636;4.948;2023-03-03T08:38:57;102835.66;;;9.77;57.53
59873;BME280;50750;51.636;4.948;2023-03-03T08:41:23;102833.38;;;9.77;57.54
59873;BME280;50750;51.636;4.948;2023-03-03T08:43:50;102832.51;;;9.77;57.63
59873;BME280;50750;51.636;4.948;2023-03-03T08:46:16;102836.01;;;9.77;57.62
59873;BME280;50750;51.636;4.948;2023-03-03T08:48:43;102837.41;;;9.77;57.61
59873;BME280;50750;51.636;4.948;2023-03-03T08:51:10;102839.86;;;9.76;57.67
59873;BME280;50750;51.636;4.948;2023-03-03T08:53:36;102842.48;;;9.76;57.68
59873;BME280;50750;51.636;4.948;2023-03-03T08:56:04;102849.30;;;9.76;57.69
59873;BME280;50750;51.636;4.948;2023-03-03T08:58:31;102853.67;;;9.76;57.64
59873;BME280;50750;51.636;4.948;2023-03-03T09:00:57;102855.06;;;9.75;57.69
59873;BME280;50750;51.636;4.948;2023-03-03T09:03:24;102855.93;;;9.75;57.69
59873;BME280;50750;51.636;4.948;2023-03-03T09:05:51;102854.20;;;9.76;57.76
59873;BME280;50750;51.636;4.948;2023-03-03T09:08:17;102856.46;;;9.75;57.77
59873;BME280;50750;51.636;4.948;2023-03-03T09:10:44;102858.22;;;9.76;57.73
59873;BME280;50750;51.636;4.948;2023-03-03T09:13:16;102859.80;;;9.76;57.85
59873;BME280;50750;51.636;4.948;2023-03-03T09:15:44;102859.09;;;9.75;57.83
59873;BME280;50750;51.636;4.948;2023-03-03T09:18:18;102861.36;;;9.75;57.78
59873;BME280;50750;51.636;4.948;2023-03-03T09:20:47;102863.47;;;9.76;57.83
59873;BME280;50750;51.636;4.948;2023-03-03T09:25:47;102864.52;;;9.75;57.83
59873;BME280;50750;51.636;4.948;2023-03-03T09:28:30;102864.85;;;9.75;57.87
59873;BME280;50750;51.636;4.948;2023-03-03T09:31:01;102867.48;;;9.75;57.93
59873;BME280;50750;51.636;4.948;2023-03-03T09:33:44;102863.28;;;9.75;57.90
59873;BME280;50750;51.636;4.948;2023-03-03T09:38:48;102862.41;;;9.75;57.98
59873;BME280;50750;51.636;4.948;2023-03-03T09:46:44;102866.97;;;9.76;57.89
59873;BME280;50750;51.636;4.948;2023-03-03T09:49:30;102869.41;;;9.76;57.91
59873;BME280;50750;51.636;4.948;2023-03-03T09:52:20;102870.83;;;9.76;57.92
59873;BME280;50750;51.636;4.948;2023-03-03T10:00:46;102875.35;;;9.75;57.82
59873;BME280;50750;51.636;4.948;2023-03-03T10:06:26;102875.00;;;9.74;57.92
59873;BME280;50750;51.636;4.948;2023-03-03T10:11:48;102878.15;;;9.74;57.93
59873;BME280;50750;51.636;4.948;2023-03-03T10:14:41;102877.45;;;9.74;57.97
59873;BME280;50750;51.636;4.948;2023-03-03T10:26:27;102873.60;;;9.74;58.06
59873;BME280;50750;51.636;4.948;2023-03-03T10:29:23;102880.25;;;9.74;58.09
59873;BME280;50750;51.636;4.948;2023-03-03T10:32:32;102878.15;;;9.74;58.10
59873;BME280;50750;51.636;4.948;2023-03-03T10:37:38;102881.13;;;9.74;58.18
59873;BME280;50750;51.636;4.948;2023-03-03T10:40:29;102876.76;;;9.74;58.21
59873;BME280;50750;51.636;4.948;2023-03-03T10:48:56;102873.08;;;9.74;58.22
59873;BME280;50750;51.636;4.948;2023-03-03T10:54:47;102867.31;;;9.75;58.27
59873;BME280;50750;51.636;4.948;2023-03-03T11:00:02;102870.13;;;9.76;58.33
59873;BME280;50750;51.636;4.948;2023-03-03T11:02:52;102864.52;;;9.76;58.32
59873;BME280;50750;51.636;4.948;2023-03-03T11:05:39;102865.05;;;9.76;58.27
59873;BME280;50750;51.636;4.948;2023-03-03T11:21:22;102870.13;;;9.77;58.37
59873;BME280;50750;51.636;4.948;2023-03-03T11:31:54;102855.27;;;9.78;58.39
59873;BME280;50750;51.636;4.948;2023-03-03T11:37:19;102853.35;;;9.79;58.38
59873;BME280;50750;51.636;4.948;2023-03-03T11:39:48;102854.05;;;9.79;58.42
59873;BME280;50750;51.636;4.948;2023-03-03T11:45:18;102855.61;;;9.80;58.38
59873;BME280;50750;51.636;4.948;2023-03-03T11:55:37;102851.61;;;9.83;58.31
59873;BME280;50750;51.636;4.948;2023-03-03T12:00:42;102847.94;;;9.83;58.20
59873;BME280;50750;51.636;4.948;2023-03-03T12:03:26;102846.89;;;9.84;58.27
59873;BME280;50750;51.636;4.948;2023-03-03T12:11:20;102843.75;;;9.86;58.24
59873;BME280;50750;51.636;4.948;2023-03-03T12:16:26;102839.90;;;9.87;58.22
59873;BME280;50750;51.636;4.948;2023-03-03T12:21:45;102833.09;;;9.87;58.24
59873;BME280;50750;51.636;4.948;2023-03-03T12:30:23;102820.14;;;9.89;58.20
59873;BME280;50750;51.636;4.948;2023-03-03T12:33:07;102822.77;;;9.90;58.27
59873;BME280;50750;51.636;4.948;2023-03-03T12:38:49;102822.96;;;9.91;58.19
59873;BME280;50750;51.636;4.948;2023-03-03T12:41:26;102822.27;;;9.92;58.23
59873;BME280;50750;51.636;4.948;2023-03-03T12:44:14;102824.02;;;9.92;58.24
59873;BME280;50750;51.636;4.948;2023-03-03T12:46:50;102821.73;;;9.93;58.23
59873;BME280;50750;51.636;4.948;2023-03-03T12:49:19;102822.42;;;9.93;58.21
59873;BME280;50750;51.636;4.948;2023-03-03T12:52:08;102817.89;;;9.94;58.21
59873;BME280;50750;51.636;4.948;2023-03-03T12:54:52;102814.92;;;9.95;58.19
59873;BME280;50750;51.636;4.948;2023-03-03T12:57:42;102809.66;;;9.96;58.17
59873;BME280;50750;51.636;4.948;2023-03-03T13:08:24;102801.45;;;9.99;58.17
59873;BME280;50750;51.636;4.948;2023-03-03T13:13:52;102808.80;;;10.01;58.21
59873;BME280;50750;51.636;4.948;2023-03-03T13:16:33;102804.44;;;10.02;58.15
59873;BME280;50750;51.636;4.948;2023-03-03T13:19:10;102806.71;;;10.03;58.15
59873;BME280;50750;51.636;4.948;2023-03-03T13:22:05;102801.29;;;10.04;58.18
59873;BME280;50750;51.636;4.948;2023-03-03T13:27:31;102802.17;;;10.06;58.21
59873;BME280;50750;51.636;4.948;2023-03-03T13:30:13;102800.23;;;10.07;58.23
59873;BME280;50750;51.636;4.948;2023-03-03T13:32:56;102792.55;;;10.08;58.14
59873;BME280;50750;51.636;4.948;2023-03-03T13:35:40;102794.83;;;10.09;58.19
59873;BME280;50750;51.636;4.948;2023-03-03T13:38:12;102795.89;;;10.10;58.16
59873;BME280;50750;51.636;4.948;2023-03-03T13:40:45;102793.26;;;10.11;58.12
59873;BME280;50750;51.636;4.948;2023-03-03T13:43:21;102792.03;;;10.12;58.12
59873;BME280;50750;51.636;4.948;2023-03-03T13:45:57;102788.90;;;10.12;58.10
59873;BME280;50750;51.636;4.948;2023-03-03T14:00:00;102774.55;;;10.16;58.10
59873;BME280;50750;51.636;4.948;2023-03-03T14:05:35;102771.73;;;10.17;58.19
59873;BME280;50750;51.636;4.948;2023-03-03T14:10:32;102770.52;;;10.18;58.16
59873;BME280;50750;51.636;4.948;2023-03-03T14:13:41;102770.88;;;10.18;58.13
59873;BME280;50750;51.636;4.948;2023-03-03T14:19:02;102766.48;;;10.20;58.12
59873;BME280;50750;51.636;4.948;2023-03-03T14:27:24;102760.90;;;10.22;58.15
59873;BME280;50750;51.636;4.948;2023-03-03T14:29:51;102759.15;;;10.22;58.14
59873;BME280;50750;51.636;4.948;2023-03-03T14:32:23;102760.02;;;10.23;58.25
59873;BME280;50750;51.636;4.948;2023-03-03T14:34:58;102761.77;;;10.23;58.15
59873;BME280;50750;51.636;4.948;2023-03-03T14:37:42;102758.45;;;10.24;58.10
59873;BME280;50750;51.636;4.948;2023-03-03T14:40:20;102755.84;;;10.24;58.15
59873;BME280;50750;51.636;4.948;2023-03-03T14:42:54;102753.21;;;10.24;58.13
59873;BME280;50750;51.636;4.948;2023-03-03T14:45:39;102750.05;;;10.25;58.22
59873;BME280;50750;51.636;4.948;2023-03-03T14:53:50;102747.42;;;10.26;58.27
59873;BME280;50750;51.636;4.948;2023-03-03T14:56:25;102744.46;;;10.27;58.20
59873;BME280;50750;51.636;4.948;2023-03-03T14:58:53;102742.55;;;10.27;58.13
59873;BME280;50750;51.636;4.948;2023-03-03T15:01:21;102739.75;;;10.28;58.17
59873;BME280;50750;51.636;4.948;2023-03-03T15:11:55;102735.73;;;10.30;58.15
59873;BME280;50750;51.636;4.948;2023-03-03T15:14:37;102733.98;;;10.31;58.16
59873;BME280;50750;51.636;4.948;2023-03-03T15:22:44;102729.61;;;10.32;58.27
59873;BME280;50750;51.636;4.948;2023-03-03T15:25:23;102723.83;;;10.32;58.19
59873;BME280;50750;51.636;4.948;2023-03-03T15:28:13;102723.65;;;10.32;58.28
59873;BME280;50750;51.636;4.948;2023-03-03T15:30:52;102720.67;;;10.33;58.26
59873;BME280;50750;51.636;4.948;2023-03-03T15:33:24;102715.59;;;10.33;58.22
59873;BME280;50750;51.636;4.948;2023-03-03T15:36:11;102718.05;;;10.34;58.29
59873;BME280;50750;51.636;4.948;2023-03-03T15:43:59;102717.52;;;10.35;58.22
59873;BME280;50750;51.636;4.948;2023-03-03T15:49:33;102711.23;;;10.35;58.24
59873;BME280;50750;51.636;4.948;2023-03-03T16:03:30;102707.20;;;10.36;58.26
59873;BME280;50750;51.636;4.948;2023-03-03T16:06:05;102706.67;;;10.36;58.20
59873;BME280;50750;51.636;4.948;2023-03-03T16:08:48;102707.72;;;10.37;58.19
59873;BME280;50750;51.636;4.948;2023-03-03T16:11:23;102709.98;;;10.36;58.14
59873;BME280;50750;51.636;4.948;2023-03-03T16:14:57;102711.05;;;10.37;58.22
59873;BME280;50750;51.636;4.948;2023-03-03T16:28:23;102709.11;;;10.38;58.24
59873;BME280;50750;51.636;4.948;2023-03-03T16:31:00;102710.34;;;10.39;58.16
59873;BME280;50750;51.636;4.948;2023-03-03T16:33:36;102710.52;;;10.39;58.22
59873;BME280;50750;51.636;4.948;2023-03-03T16:36:27;102712.96;;;10.39;58.24
59873;BME280;50750;51.636;4.948;2023-03-03T16:39:10;102714.02;;;10.39;58.19
59873;BME280;50750;51.636;4.948;2023-03-03T16:46:43;102722.25;;;10.40;58.25
59873;BME280;50750;51.636;4.948;2023-03-03T16:49:33;102725.23;;;10.41;58.22
59873;BME280;50750;51.636;4.948;2023-03-03T16:52:14;102726.10;;;10.41;58.10
59873;BME280;50750;51.636;4.948;2023-03-03T16:57:52;102734.52;;;10.41;58.20
59873;BME280;50750;51.636;4.948;2023-03-03T17:00:27;102739.59;;;10.42;58.06
59873;BME280;50750;51.636;4.948;2023-03-03T17:03:09;102742.22;;;10.42;58.16
59873;BME280;50750;51.636;4.948;2023-03-03T17:14:01;102747.64;;;10.42;57.09
59873;BME280;50750;51.636;4.948;2023-03-03T17:16:38;102751.52;;;10.41;57.25
59873;BME280;50750;51.636;4.948;2023-03-03T17:25:06;102758.16;;;10.41;57.60
59873;BME280;50750;51.636;4.948;2023-03-03T17:28:01;102761.66;;;10.41;57.62
59873;BME280;50750;51.636;4.948;2023-03-03T17:30:38;102762.89;;;10.41;57.76